Time;durP1;ratioP1;P1;durP2;ratioP2;P2;SDS_P1;SDS_P2;PMS_P1;PMS_P2;Temp;Humidity;BMP_temperature;BMP_pressure;BME280_temperature;BME280_humidity;BME280_pressure;Samples;Min_cycle;Max_cycle;Signal;HPM_P1;HPM_P2
2023/06/22 00:01:06;;;;;;;;;;;20.60;99.90;;;;;;5023571;28;19940;-86
2023/06/22 00:03:33;;;;;;;;;;;20.50;99.90;;;;;;5009968;28;20606;-86
2023/06/22 00:05:59;;;;;;;;;;;20.50;99.90;;;;;;5025775;28;19916;-86
2023/06/22 00:08:24;;;;;;;;;;;20.50;99.90;;;;;;5024249;28;20044;-87
2023/06/22 00:10:50;;;;;;;;;;;20.40;99.90;;;;;;5029416;28;19917;-90
2023/06/22 00:13:17;;;;;;;;;;;20.40;99.90;;;;;;5027274;28;20280;-90
2023/06/22 00:15:42;;;;;;;;;;;20.30;99.90;;;;;;5022723;28;20000;-88
2023/06/22 00:18:09;;;;;;;;;;;20.30;99.90;;;;;;5022744;28;20004;-93
2023/06/22 00:20:36;;;;;;;;;;;20.30;99.90;;;;;;5032327;28;19909;-90
2023/06/22 00:23:07;;;;;;;;;;;19.90;99.90;;;;;;5025519;28;19915;-91
2023/06/22 00:25:33;;;;;;;;;;;19.70;99.90;;;;;;5029667;28;19954;-91
2023/06/22 00:27:59;;;;;;;;;;;19.80;99.90;;;;;;5025219;28;19914;-90
2023/06/22 00:30:24;;;;;;;;;;;19.70;99.90;;;;;;5017127;28;19988;-91
2023/06/22 00:32:50;;;;;;;;;;;19.60;99.90;;;;;;5025602;28;20347;-91
2023/06/22 00:35:16;;;;;;;;;;;19.60;99.90;;;;;;5026198;28;20429;-90
2023/06/22 00:37:42;;;;;;;;;;;19.70;99.90;;;;;;5029335;28;19940;-90
2023/06/22 00:40:11;;;;;;;;;;;19.90;99.90;;;;;;5032696;28;20576;-88
2023/06/22 00:42:41;;;;;;;;;;;19.90;99.90;;;;;;5015250;28;19908;-90
2023/06/22 00:45:06;;;;;;;;;;;20.00;99.90;;;;;;5032057;28;19923;-91
2023/06/22 00:47:33;;;;;;;;;;;19.80;99.90;;;;;;5034142;28;20174;-88
2023/06/22 00:50:00;;;;;;;;;;;19.40;99.90;;;;;;5039229;28;19995;-87
2023/06/22 00:52:30;;;;;;;;;;;19.30;99.90;;;;;;5039532;28;20008;-86
2023/06/22 00:54:57;;;;;;;;;;;19.40;99.90;;;;;;5048149;28;20600;-85
2023/06/22 00:57:25;;;;;;;;;;;19.10;99.90;;;;;;5025989;28;20552;-86
2023/06/22 00:59:51;;;;;;;;;;;19.00;99.90;;;;;;5027289;28;19954;-86
2023/06/22 01:02:16;;;;;;;;;;;18.90;99.90;;;;;;5045018;28;19909;-86
2023/06/22 01:04:42;;;;;;;;;;;19.00;99.90;;;;;;5044721;28;19909;-85
2023/06/22 01:07:23;;;;;;;;;;;19.10;99.90;;;;;;5044864;28;19908;-85
2023/06/22 01:10:02;;;;;;;;;;;19.10;99.90;;;;;;5034179;28;19934;-86
2023/06/22 01:12:30;;;;;;;;;;;19.10;99.90;;;;;;5042308;28;19916;-86
2023/06/22 01:15:01;;;;;;;;;;;18.90;99.90;;;;;;5025089;28;19913;-87
2023/06/22 01:17:27;;;;;;;;;;;18.80;99.90;;;;;;5045777;28;19908;-86
2023/06/22 01:19:57;;;;;;;;;;;18.80;99.90;;;;;;5041399;28;19948;-85
2023/06/22 01:22:28;;;;;;;;;;;18.90;99.90;;;;;;5042101;28;20298;-85
2023/06/22 01:25:11;;;;;;;;;;;18.90;99.90;;;;;;5038686;28;19924;-88
2023/06/22 01:27:56;;;;;;;;;;;19.10;99.90;;;;;;5039915;28;19913;-87
2023/06/22 01:30:22;;;;;;;;;;;19.10;99.90;;;;;;5037261;28;19924;-86
2023/06/22 01:32:48;;;;;;;;;;;19.10;99.90;;;;;;5044443;28;19913;-84
2023/06/22 01:35:14;;;;;;;;;;;19.10;99.90;;;;;;5044015;28;19994;-86
2023/06/22 01:37:40;;;;;;;;;;;19.20;99.90;;;;;;5040968;28;19999;-87
2023/06/22 01:40:08;;;;;;;;;;;19.30;99.90;;;;;;5043079;28;19977;-84
2023/06/22 01:42:34;;;;;;;;;;;19.00;99.90;;;;;;5043801;28;19964;-87
2023/06/22 01:45:00;;;;;;;;;;;19.20;99.90;;;;;;5035282;28;19975;-86
2023/06/22 01:47:27;;;;;;;;;;;19.10;99.90;;;;;;5024390;28;19912;-87
2023/06/22 01:49:53;;;;;;;;;;;19.10;99.90;;;;;;5024029;28;19913;-86
2023/06/22 01:52:20;;;;;;;;;;;18.80;99.90;;;;;;5022592;28;19913;-87
2023/06/22 01:54:46;;;;;;;;;;;18.70;99.90;;;;;;5018760;28;20000;-88
2023/06/22 01:57:12;;;;;;;;;;;18.70;99.90;;;;;;5020843;28;19920;-89
2023/06/22 01:59:44;;;;;;;;;;;18.60;99.90;;;;;;5023031;28;19923;-87
2023/06/22 02:02:11;;;;;;;;;;;18.60;99.90;;;;;;5022952;28;20008;-88
2023/06/22 02:04:54;;;;;;;;;;;18.80;99.90;;;;;;5024452;28;20662;-89
2023/06/22 02:07:22;;;;;;;;;;;18.70;99.90;;;;;;5013149;28;20295;-87
2023/06/22 02:09:49;;;;;;;;;;;18.50;99.90;;;;;;5022091;28;19944;-88
2023/06/22 02:12:17;;;;;;;;;;;18.60;99.90;;;;;;5024088;28;19919;-87
2023/06/22 02:14:43;;;;;;;;;;;18.60;99.90;;;;;;5023209;28;19942;-87
2023/06/22 02:17:09;;;;;;;;;;;18.60;99.90;;;;;;5023456;28;19919;-88
2023/06/22 02:19:37;;;;;;;;;;;18.60;99.90;;;;;;5023998;28;19909;-87
2023/06/22 02:22:04;;;;;;;;;;;18.60;99.90;;;;;;5005495;28;20272;-87
2023/06/22 02:24:31;;;;;;;;;;;18.60;99.90;;;;;;5023073;28;20078;-87
2023/06/22 02:26:58;;;;;;;;;;;18.50;99.90;;;;;;5020787;28;19934;-87
2023/06/22 02:29:23;;;;;;;;;;;18.50;99.90;;;;;;5024175;28;20243;-87
2023/06/22 02:31:49;;;;;;;;;;;18.60;99.90;;;;;;5023289;28;20395;-88
2023/06/22 02:34:18;;;;;;;;;;;18.50;99.90;;;;;;5018446;28;20407;-89
2023/06/22 02:36:50;;;;;;;;;;;18.60;99.90;;;;;;4999873;28;20291;-89
2023/06/22 02:39:19;;;;;;;;;;;18.60;99.90;;;;;;5017947;28;19935;-88
2023/06/22 02:41:45;;;;;;;;;;;18.50;99.90;;;;;;5016067;28;20028;-87
2023/06/22 02:44:10;;;;;;;;;;;18.50;99.90;;;;;;5016609;28;20656;-88
2023/06/22 02:46:36;;;;;;;;;;;18.40;99.90;;;;;;5026805;28;20003;-88
2023/06/22 02:49:01;;;;;;;;;;;18.40;99.90;;;;;;5016727;28;20013;-86
2023/06/22 02:51:27;;;;;;;;;;;18.40;99.90;;;;;;5022834;28;19923;-87
2023/06/22 02:53:57;;;;;;;;;;;18.30;99.90;;;;;;5017448;28;19915;-87
2023/06/22 02:56:25;;;;;;;;;;;18.30;99.90;;;;;;5019804;28;20263;-88
2023/06/22 02:58:53;;;;;;;;;;;18.30;99.90;;;;;;5008787;28;19999;-88
2023/06/22 03:01:23;;;;;;;;;;;18.20;99.90;;;;;;5023054;28;19959;-88
2023/06/22 03:03:49;;;;;;;;;;;18.20;99.90;;;;;;5022526;28;19909;-88
2023/06/22 03:06:15;;;;;;;;;;;18.10;99.90;;;;;;5013135;28;20427;-88
2023/06/22 03:08:41;;;;;;;;;;;18.00;99.90;;;;;;5021548;28;19916;-90
2023/06/22 03:11:07;;;;;;;;;;;18.00;99.90;;;;;;5023398;28;19948;-88
2023/06/22 03:13:33;;;;;;;;;;;18.10;99.90;;;;;;5021410;28;20651;-88
2023/06/22 03:15:59;;;;;;;;;;;18.00;99.90;;;;;;5023007;28;19909;-88
2023/06/22 03:18:24;;;;;;;;;;;18.00;99.90;;;;;;5017860;28;20581;-88
2023/06/22 03:20:50;;;;;;;;;;;18.30;99.90;;;;;;5022878;28;19998;-88
2023/06/22 03:23:15;;;;;;;;;;;18.20;99.90;;;;;;5019392;28;19923;-88
2023/06/22 03:25:44;;;;;;;;;;;18.00;99.90;;;;;;5022832;28;20389;-88
2023/06/22 03:28:10;;;;;;;;;;;18.10;99.90;;;;;;5018772;28;20012;-88
2023/06/22 03:30:35;;;;;;;;;;;18.20;99.90;;;;;;5004968;28;19921;-88
2023/06/22 03:33:01;;;;;;;;;;;18.10;99.90;;;;;;5021676;28;19909;-89
2023/06/22 03:35:27;;;;;;;;;;;18.20;99.90;;;;;;5021278;28;19975;-89
2023/06/22 03:37:52;;;;;;;;;;;18.20;99.90;;;;;;5015040;28;19912;-88
2023/06/22 03:40:18;;;;;;;;;;;18.20;99.90;;;;;;5011526;28;20725;-88
2023/06/22 03:42:43;;;;;;;;;;;18.10;99.90;;;;;;5022485;28;20684;-89
2023/06/22 03:45:09;;;;;;;;;;;18.10;99.90;;;;;;5021713;28;19917;-87
2023/06/22 03:47:35;;;;;;;;;;;18.10;99.90;;;;;;5016024;28;19913;-87
2023/06/22 03:50:03;;;;;;;;;;;18.10;99.90;;;;;;5021091;28;19912;-87
2023/06/22 03:52:29;;;;;;;;;;;18.20;99.90;;;;;;5015864;28;19909;-86
2023/06/22 03:54:54;;;;;;;;;;;18.20;99.90;;;;;;5013680;28;19913;-87
2023/06/22 03:57:20;;;;;;;;;;;18.10;99.90;;;;;;5022017;28;19913;-86
2023/06/22 03:59:45;;;;;;;;;;;18.20;99.90;;;;;;5020438;28;20379;-87
2023/06/22 04:02:11;;;;;;;;;;;18.20;99.90;;;;;;5022015;28;20219;-86
2023/06/22 04:04:38;;;;;;;;;;;18.10;99.90;;;;;;5022316;28;19909;-86
2023/06/22 04:07:04;;;;;;;;;;;18.10;99.90;;;;;;5020539;28;19913;-88
2023/06/22 04:09:29;;;;;;;;;;;18.10;99.90;;;;;;5022720;28;19920;-87
2023/06/22 04:11:55;;;;;;;;;;;18.20;99.90;;;;;;5022122;28;20487;-88
2023/06/22 04:14:21;;;;;;;;;;;18.10;99.90;;;;;;5020759;28;19931;-86
2023/06/22 04:16:46;;;;;;;;;;;18.00;99.90;;;;;;5014674;28;19932;-84
2023/06/22 04:19:16;;;;;;;;;;;18.00;99.90;;;;;;5021945;28;20771;-87
2023/06/22 04:21:45;;;;;;;;;;;18.20;99.90;;;;;;5019693;28;19909;-87
2023/06/22 04:24:11;;;;;;;;;;;18.10;99.90;;;;;;5021431;28;20291;-87
2023/06/22 04:26:37;;;;;;;;;;;18.10;99.90;;;;;;5018435;28;20355;-88
2023/06/22 04:29:05;;;;;;;;;;;18.20;99.90;;;;;;5021898;28;20008;-88
2023/06/22 04:31:37;;;;;;;;;;;18.10;99.90;;;;;;5019355;28;19923;-88
2023/06/22 04:34:06;;;;;;;;;;;18.20;99.90;;;;;;5019025;28;20740;-90
2023/06/22 04:36:39;;;;;;;;;;;18.10;99.90;;;;;;5020839;28;19908;-88
2023/06/22 04:39:06;;;;;;;;;;;18.20;99.90;;;;;;5014122;28;19924;-86
2023/06/22 04:41:41;;;;;;;;;;;18.10;99.90;;;;;;5017559;28;20586;-90
2023/06/22 04:44:14;;;;;;;;;;;18.20;99.90;;;;;;5022285;28;20004;-89
2023/06/22 04:46:40;;;;;;;;;;;18.20;99.90;;;;;;5022717;28;19917;-89
2023/06/22 04:49:09;;;;;;;;;;;18.30;99.90;;;;;;5014034;28;20411;-92
2023/06/22 04:51:41;;;;;;;;;;;18.30;99.90;;;;;;5026481;28;19929;-90
2023/06/22 04:54:07;;;;;;;;;;;18.20;99.90;;;;;;5027408;28;20003;-91
2023/06/22 04:56:33;;;;;;;;;;;18.30;99.90;;;;;;5025658;28;20439;-90
2023/06/22 04:58:59;;;;;;;;;;;18.30;99.90;;;;;;5025146;28;19917;-90
2023/06/22 05:01:25;;;;;;;;;;;18.30;99.90;;;;;;5006350;28;19960;-90
2023/06/22 05:03:55;;;;;;;;;;;18.40;99.90;;;;;;5025394;28;19909;-90
2023/06/22 05:06:21;;;;;;;;;;;18.40;99.90;;;;;;5007710;28;19963;-92
2023/06/22 05:08:47;;;;;;;;;;;18.40;99.90;;;;;;5025014;28;20454;-91
2023/06/22 05:11:12;;;;;;;;;;;18.30;99.90;;;;;;5024988;28;19916;-91
2023/06/22 05:13:38;;;;;;;;;;;18.30;99.90;;;;;;5025081;28;19916;-91
2023/06/22 05:16:05;;;;;;;;;;;18.30;99.90;;;;;;5024913;28;19913;-91
2023/06/22 05:18:31;;;;;;;;;;;18.30;99.90;;;;;;5024309;28;20423;-90
2023/06/22 05:20:58;;;;;;;;;;;18.40;99.90;;;;;;5024117;28;19924;-90
2023/06/22 05:23:24;;;;;;;;;;;18.40;99.90;;;;;;5019299;28;19913;-90
2023/06/22 05:25:51;;;;;;;;;;;18.40;99.90;;;;;;5024704;28;19959;-89
2023/06/22 05:28:16;;;;;;;;;;;18.40;99.90;;;;;;5025815;28;20011;-90
2023/06/22 05:30:42;;;;;;;;;;;18.50;99.90;;;;;;5009269;28;20036;-90
2023/06/22 05:33:07;;;;;;;;;;;18.30;99.90;;;;;;5025852;28;19916;-90
2023/06/22 05:35:33;;;;;;;;;;;18.40;99.90;;;;;;5023689;28;19917;-90
2023/06/22 05:37:58;;;;;;;;;;;18.50;99.90;;;;;;5022931;28;19913;-88
2023/06/22 05:40:24;;;;;;;;;;;18.40;99.90;;;;;;5017481;28;19913;-86
2023/06/22 05:42:50;;;;;;;;;;;18.40;99.90;;;;;;5025691;28;19913;-88
2023/06/22 05:45:15;;;;;;;;;;;18.40;99.90;;;;;;5007944;28;19917;-88
2023/06/22 05:47:41;;;;;;;;;;;18.40;99.90;;;;;;5023352;28;19920;-87
2023/06/22 05:50:08;;;;;;;;;;;18.40;99.90;;;;;;5025186;28;19916;-86
2023/06/22 05:52:34;;;;;;;;;;;18.40;99.90;;;;;;5022687;28;19913;-86
2023/06/22 05:54:59;;;;;;;;;;;18.40;99.90;;;;;;5024276;28;19915;-86
2023/06/22 05:57:25;;;;;;;;;;;18.40;99.90;;;;;;5021186;28;19909;-86
2023/06/22 05:59:51;;;;;;;;;;;18.50;99.90;;;;;;5019418;28;20419;-83
2023/06/22 06:02:17;;;;;;;;;;;18.40;99.90;;;;;;5024284;28;20622;-90
2023/06/22 06:04:42;;;;;;;;;;;18.50;99.90;;;;;;5024173;28;19984;-88
2023/06/22 06:07:08;;;;;;;;;;;18.60;99.90;;;;;;5025216;28;20364;-88
2023/06/22 06:09:33;;;;;;;;;;;18.50;99.90;;;;;;5024700;28;20028;-87
2023/06/22 06:11:59;;;;;;;;;;;18.40;99.90;;;;;;5024408;28;19967;-85
2023/06/22 06:14:24;;;;;;;;;;;18.40;99.90;;;;;;5024280;28;19917;-86
2023/06/22 06:16:50;;;;;;;;;;;18.30;99.90;;;;;;5023398;28;19920;-85
2023/06/22 06:19:16;;;;;;;;;;;18.30;99.90;;;;;;5024274;28;20383;-84
2023/06/22 06:21:41;;;;;;;;;;;18.30;99.90;;;;;;5018548;28;19909;-85
2023/06/22 06:24:07;;;;;;;;;;;18.30;99.90;;;;;;5023944;28;19909;-84
2023/06/22 06:26:32;;;;;;;;;;;18.40;99.90;;;;;;5024020;28;19910;-82
2023/06/22 06:28:59;;;;;;;;;;;18.20;99.90;;;;;;5023604;28;19909;-82
2023/06/22 06:31:27;;;;;;;;;;;18.20;99.90;;;;;;5023401;28;19925;-82
2023/06/22 06:33:53;;;;;;;;;;;18.10;99.90;;;;;;5023094;28;19913;-82
2023/06/22 06:36:19;;;;;;;;;;;18.00;99.90;;;;;;5022819;28;19916;-82
2023/06/22 06:38:46;;;;;;;;;;;18.10;99.90;;;;;;5008579;28;19913;-82
2023/06/22 06:41:15;;;;;;;;;;;18.10;99.90;;;;;;5023096;28;20443;-82
2023/06/22 06:43:43;;;;;;;;;;;18.20;99.90;;;;;;5022822;28;19909;-82
2023/06/22 06:46:08;;;;;;;;;;;18.40;99.90;;;;;;5021813;28;20496;-82
2023/06/22 06:48:34;;;;;;;;;;;18.70;99.90;;;;;;5034624;28;19924;-82
2023/06/22 06:51:00;;;;;;;;;;;19.00;99.90;;;;;;5043038;28;20333;-82
2023/06/22 06:53:25;;;;;;;;;;;19.40;99.90;;;;;;5042200;28;19919;-82
2023/06/22 06:55:51;;;;;;;;;;;19.20;99.90;;;;;;5041888;28;19951;-82
2023/06/22 06:58:16;;;;;;;;;;;19.40;99.90;;;;;;5043319;28;20043;-82
2023/06/22 07:00:43;;;;;;;;;;;19.30;99.90;;;;;;5042132;28;20371;-82
2023/06/22 07:03:09;;;;;;;;;;;19.30;99.90;;;;;;5036857;28;20688;-82
2023/06/22 07:05:35;;;;;;;;;;;19.30;99.90;;;;;;5047210;28;19912;-82
2023/06/22 07:08:00;;;;;;;;;;;19.30;99.90;;;;;;5027394;28;20581;-82
2023/06/22 07:10:26;;;;;;;;;;;19.40;99.90;;;;;;5045919;28;20070;-82
2023/06/22 07:12:52;;;;;;;;;;;19.30;99.90;;;;;;5041604;28;19920;-82
2023/06/22 07:15:17;;;;;;;;;;;19.10;99.90;;;;;;5042120;28;20007;-83
2023/06/22 07:17:43;;;;;;;;;;;19.20;99.90;;;;;;5047792;28;19963;-82
2023/06/22 07:20:10;;;;;;;;;;;19.50;99.90;;;;;;5042422;28;20590;-82
2023/06/22 07:22:36;;;;;;;;;;;20.10;99.90;;;;;;5027535;28;19912;-82
2023/06/22 07:25:08;;;;;;;;;;;20.30;99.90;;;;;;5023866;28;20021;-82
2023/06/22 07:27:36;;;;;;;;;;;20.30;99.90;;;;;;5048066;28;19913;-81
2023/06/22 07:30:02;;;;;;;;;;;20.30;99.90;;;;;;5042188;28;19909;-82
2023/06/22 07:32:31;;;;;;;;;;;20.50;99.90;;;;;;5023039;28;20008;-82
2023/06/22 07:34:56;;;;;;;;;;;20.60;99.90;;;;;;5042601;28;20019;-81
2023/06/22 07:37:22;;;;;;;;;;;20.60;99.90;;;;;;5046606;28;20668;-82
2023/06/22 07:39:47;;;;;;;;;;;21.10;99.90;;;;;;5055842;28;19908;-82
2023/06/22 07:42:18;;;;;;;;;;;20.80;99.90;;;;;;5052601;28;19909;-81
2023/06/22 07:44:44;;;;;;;;;;;20.50;99.90;;;;;;5042953;28;19916;-82
2023/06/22 07:47:09;;;;;;;;;;;20.60;99.90;;;;;;5052125;28;20683;-81
2023/06/22 07:49:35;;;;;;;;;;;20.70;99.90;;;;;;5021118;28;20047;-81
2023/06/22 07:52:01;;;;;;;;;;;20.60;99.90;;;;;;5023162;28;19916;-82
2023/06/22 07:54:27;;;;;;;;;;;20.30;99.90;;;;;;5020179;28;19913;-82
2023/06/22 07:56:53;;;;;;;;;;;20.40;99.90;;;;;;5013185;28;19909;-82
2023/06/22 07:59:18;;;;;;;;;;;20.40;99.90;;;;;;5019422;28;19916;-82
2023/06/22 08:01:44;;;;;;;;;;;20.10;99.90;;;;;;5022103;28;20328;-82
2023/06/22 08:04:09;;;;;;;;;;;20.00;99.90;;;;;;5015193;28;20372;-82
2023/06/22 08:06:35;;;;;;;;;;;20.20;99.90;;;;;;5014256;28;19909;-82
2023/06/22 08:09:01;;;;;;;;;;;20.80;99.90;;;;;;5022137;28;19915;-82
2023/06/22 08:11:26;;;;;;;;;;;24.30;99.90;;;;;;5012281;28;19913;-82
2023/06/22 08:13:52;;;;;;;;;;;25.70;99.90;;;;;;5018617;28;19913;-82
2023/06/22 08:16:18;;;;;;;;;;;23.70;99.90;;;;;;5014695;28;19916;-82
2023/06/22 08:18:43;;;;;;;;;;;22.40;99.90;;;;;;5015989;28;19940;-82
2023/06/22 08:21:09;;;;;;;;;;;27.10;99.60;;;;;;5004766;28;20008;-82
2023/06/22 08:23:35;;;;;;;;;;;26.50;93.60;;;;;;5025576;28;19996;-82
2023/06/22 08:26:00;;;;;;;;;;;26.60;96.20;;;;;;5018021;28;20508;-82
2023/06/22 08:28:26;;;;;;;;;;;24.30;94.20;;;;;;5025681;28;19908;-82
2023/06/22 08:30:51;;;;;;;;;;;22.40;99.90;;;;;;5016093;28;19920;-81
2023/06/22 08:33:17;;;;;;;;;;;21.60;99.90;;;;;;5022781;28;19913;-82
2023/06/22 08:35:43;;;;;;;;;;;21.00;99.90;;;;;;5025680;28;19916;-81
2023/06/22 08:38:09;;;;;;;;;;;20.90;99.90;;;;;;5023921;28;19986;-82
2023/06/22 08:40:34;;;;;;;;;;;20.90;99.90;;;;;;5025473;28;20502;-82
2023/06/22 08:43:00;;;;;;;;;;;20.70;99.90;;;;;;5024225;28;19908;-82
2023/06/22 08:45:25;;;;;;;;;;;21.60;99.90;;;;;;5026031;28;20308;-82
2023/06/22 08:47:51;;;;;;;;;;;21.90;99.90;;;;;;5030743;28;19938;-82
2023/06/22 08:50:17;;;;;;;;;;;22.30;99.90;;;;;;5054782;28;19908;-82
2023/06/22 08:52:42;;;;;;;;;;;22.30;99.90;;;;;;5046104;28;19940;-82
2023/06/22 08:55:09;;;;;;;;;;;22.20;99.90;;;;;;5055326;28;19943;-82
2023/06/22 08:57:37;;;;;;;;;;;21.80;99.90;;;;;;5045715;28;19912;-82
2023/06/22 09:00:04;;;;;;;;;;;21.50;99.90;;;;;;5050331;28;19908;-82
2023/06/22 09:02:31;;;;;;;;;;;21.50;99.90;;;;;;5057178;28;19978;-82
2023/06/22 09:04:57;;;;;;;;;;;21.20;99.90;;;;;;5059168;28;19912;-82
2023/06/22 09:07:24;;;;;;;;;;;21.10;99.90;;;;;;5048772;28;20492;-82
2023/06/22 09:09:50;;;;;;;;;;;21.10;99.90;;;;;;5040189;28;20613;-82
2023/06/22 09:12:16;;;;;;;;;;;20.70;99.90;;;;;;5054928;28;19919;-82
2023/06/22 09:14:41;;;;;;;;;;;20.70;99.90;;;;;;5056770;28;19913;-82
2023/06/22 09:17:07;;;;;;;;;;;20.40;99.90;;;;;;5053716;28;20008;-83
2023/06/22 09:19:33;;;;;;;;;;;20.30;99.90;;;;;;5055366;28;19920;-82
2023/06/22 09:21:58;;;;;;;;;;;20.00;99.90;;;;;;5047721;28;20513;-82
2023/06/22 09:24:24;;;;;;;;;;;19.70;99.90;;;;;;5053700;28;19908;-82
2023/06/22 09:26:50;;;;;;;;;;;19.60;99.90;;;;;;5052990;28;20046;-82
2023/06/22 09:29:15;;;;;;;;;;;19.50;99.90;;;;;;5052480;28;19909;-82
2023/06/22 09:31:41;;;;;;;;;;;19.60;99.90;;;;;;5051363;28;19915;-82
2023/06/22 09:34:07;;;;;;;;;;;20.10;99.90;;;;;;5046777;28;19919;-82
2023/06/22 09:36:32;;;;;;;;;;;20.90;99.90;;;;;;5042660;28;20748;-82
2023/06/22 09:38:58;;;;;;;;;;;22.90;99.90;;;;;;5044444;28;20357;-82
2023/06/22 09:41:24;;;;;;;;;;;28.50;94.90;;;;;;5042597;28;20050;-82
2023/06/22 09:43:50;;;;;;;;;;;28.40;90.00;;;;;;5042655;28;19908;-82
2023/06/22 09:46:15;;;;;;;;;;;25.00;92.60;;;;;;5054649;28;19917;-82
2023/06/22 09:48:41;;;;;;;;;;;23.40;98.10;;;;;;5031191;28;20261;-82
2023/06/22 09:51:06;;;;;;;;;;;22.00;99.90;;;;;;5020966;28;19998;-82
2023/06/22 09:53:32;;;;;;;;;;;20.70;99.90;;;;;;5022507;28;19963;-82
2023/06/22 09:55:58;;;;;;;;;;;20.20;99.90;;;;;;5017084;28;19909;-82
2023/06/22 09:58:23;;;;;;;;;;;20.20;99.90;;;;;;5024400;28;19959;-83
2023/06/22 10:00:49;;;;;;;;;;;20.40;99.90;;;;;;5021687;28;19913;-82
2023/06/22 10:03:14;;;;;;;;;;;20.70;99.90;;;;;;5023332;28;19909;-83
2023/06/22 10:05:40;;;;;;;;;;;20.90;99.90;;;;;;5007568;28;19909;-82
2023/06/22 10:08:08;;;;;;;;;;;20.80;99.90;;;;;;5022559;28;19909;-82
2023/06/22 10:10:34;;;;;;;;;;;20.80;99.90;;;;;;5013211;28;19917;-82
2023/06/22 10:13:07;;;;;;;;;;;20.90;99.90;;;;;;5007580;28;19912;-82
2023/06/22 10:15:32;;;;;;;;;;;21.10;99.90;;;;;;5020502;28;19909;-82
2023/06/22 10:17:58;;;;;;;;;;;22.40;99.90;;;;;;5016820;28;20841;-82
2023/06/22 10:20:23;;;;;;;;;;;24.20;99.90;;;;;;5020049;28;19913;-82
2023/06/22 10:22:49;;;;;;;;;;;24.30;99.90;;;;;;5021510;28;19909;-82
2023/06/22 10:25:14;;;;;;;;;;;23.80;99.90;;;;;;5016762;28;19924;-82
2023/06/22 10:27:40;;;;;;;;;;;23.40;99.90;;;;;;5016699;28;19909;-82
2023/06/22 10:30:07;;;;;;;;;;;24.00;99.90;;;;;;5008091;28;19909;-82
2023/06/22 10:32:32;;;;;;;;;;;23.30;99.90;;;;;;5010410;28;19966;-82
2023/06/22 10:34:58;;;;;;;;;;;22.40;99.90;;;;;;5023702;28;19908;-82
2023/06/22 10:37:23;;;;;;;;;;;22.00;99.90;;;;;;5021083;28;20028;-82
2023/06/22 10:39:49;;;;;;;;;;;21.70;99.90;;;;;;5023060;28;20012;-82
2023/06/22 10:42:15;;;;;;;;;;;21.30;99.90;;;;;;5023232;28;20781;-82
2023/06/22 10:44:43;;;;;;;;;;;21.20;99.90;;;;;;5023270;28;20004;-82
2023/06/22 10:47:08;;;;;;;;;;;21.00;99.90;;;;;;5022335;28;19971;-82
2023/06/22 10:49:34;;;;;;;;;;;21.00;99.90;;;;;;5055726;28;19920;-83
2023/06/22 10:51:59;;;;;;;;;;;20.50;99.90;;;;;;5061049;28;19953;-83
2023/06/22 10:54:25;;;;;;;;;;;20.60;99.90;;;;;;5056866;28;19940;-83
2023/06/22 10:56:50;;;;;;;;;;;20.50;99.90;;;;;;5054398;28;20070;-83
2023/06/22 10:59:16;;;;;;;;;;;20.40;99.90;;;;;;5054813;28;19908;-83
2023/06/22 11:01:41;;;;;;;;;;;20.40;99.90;;;;;;5056258;28;19995;-82
2023/06/22 11:04:07;;;;;;;;;;;20.60;99.90;;;;;;5054316;28;19908;-83
2023/06/22 11:06:33;;;;;;;;;;;20.80;99.90;;;;;;5056635;28;20386;-82
2023/06/22 11:08:58;;;;;;;;;;;20.50;99.90;;;;;;5054921;28;20643;-82
2023/06/22 11:11:25;;;;;;;;;;;20.50;99.90;;;;;;5037457;28;19958;-83
2023/06/22 11:13:50;;;;;;;;;;;20.20;99.90;;;;;;5053374;28;19936;-83
2023/06/22 11:16:16;;;;;;;;;;;19.80;99.90;;;;;;5030962;28;20384;-82
2023/06/22 11:18:42;;;;;;;;;;;19.60;99.90;;;;;;5046206;28;19909;-83
2023/06/22 11:21:07;;;;;;;;;;;19.80;99.90;;;;;;5048876;28;19955;-82
2023/06/22 11:23:33;;;;;;;;;;;19.60;99.90;;;;;;5048111;28;19909;-82
2023/06/22 11:25:58;;;;;;;;;;;19.60;99.90;;;;;;5039915;28;19998;-82
2023/06/22 11:28:24;;;;;;;;;;;19.80;99.90;;;;;;5044718;28;20413;-82
2023/06/22 11:30:49;;;;;;;;;;;19.70;99.90;;;;;;5041969;28;19952;-82
2023/06/22 11:33:15;;;;;;;;;;;19.80;99.90;;;;;;5045239;28;19955;-82
2023/06/22 11:35:40;;;;;;;;;;;20.20;99.90;;;;;;5047229;28;19999;-82
2023/06/22 11:38:07;;;;;;;;;;;20.60;99.90;;;;;;5042694;28;19954;-82
2023/06/22 11:40:33;;;;;;;;;;;20.70;99.90;;;;;;5049837;28;20264;-83
2023/06/22 11:42:58;;;;;;;;;;;20.70;99.90;;;;;;5046937;28;19916;-83
2023/06/22 11:45:24;;;;;;;;;;;20.30;99.90;;;;;;5024058;28;20043;-83
2023/06/22 11:47:49;;;;;;;;;;;20.20;99.90;;;;;;5035712;28;19921;-82
2023/06/22 11:50:15;;;;;;;;;;;20.50;99.90;;;;;;5017349;28;20362;-82
2023/06/22 11:52:41;;;;;;;;;;;20.60;99.90;;;;;;5021349;28;20011;-82
2023/06/22 11:55:06;;;;;;;;;;;20.80;99.90;;;;;;5021757;28;19948;-83
2023/06/22 11:57:36;;;;;;;;;;;20.70;99.90;;;;;;5027608;28;19915;-82
2023/06/22 12:00:06;;;;;;;;;;;21.00;99.90;;;;;;5021519;28;19909;-82
2023/06/22 12:02:31;;;;;;;;;;;21.50;99.90;;;;;;5023350;28;19916;-82
2023/06/22 12:04:58;;;;;;;;;;;21.80;99.90;;;;;;5028731;28;19912;-82
2023/06/22 12:07:23;;;;;;;;;;;22.00;99.90;;;;;;5029330;28;19913;-83
2023/06/22 12:09:49;;;;;;;;;;;21.60;99.90;;;;;;5029596;28;19931;-83
2023/06/22 12:12:15;;;;;;;;;;;21.20;99.90;;;;;;5025853;28;19960;-83
2023/06/22 12:14:40;;;;;;;;;;;21.30;99.90;;;;;;5026821;28;19920;-83
2023/06/22 12:17:06;;;;;;;;;;;21.80;99.90;;;;;;5014166;28;19909;-83
2023/06/22 12:19:32;;;;;;;;;;;22.40;99.90;;;;;;5028675;28;19916;-83
2023/06/22 12:21:57;;;;;;;;;;;22.70;99.90;;;;;;5029531;28;20394;-83
2023/06/22 12:24:23;;;;;;;;;;;22.70;99.90;;;;;;5010384;28;19921;-82
2023/06/22 12:26:49;;;;;;;;;;;22.60;99.90;;;;;;5028787;28;20247;-82
2023/06/22 12:29:14;;;;;;;;;;;22.70;99.90;;;;;;5028411;28;20043;-82
2023/06/22 12:31:41;;;;;;;;;;;22.60;99.90;;;;;;5028059;28;19917;-82
2023/06/22 12:34:07;;;;;;;;;;;22.50;99.90;;;;;;5028967;28;19913;-82
2023/06/22 12:36:32;;;;;;;;;;;22.40;99.90;;;;;;5010155;28;19909;-82
2023/06/22 12:38:58;;;;;;;;;;;22.60;99.90;;;;;;5029064;28;19952;-82
2023/06/22 12:41:23;;;;;;;;;;;22.50;99.90;;;;;;5014581;28;19951;-82
2023/06/22 12:43:49;;;;;;;;;;;23.00;99.90;;;;;;5029066;28;19913;-82
2023/06/22 12:46:14;;;;;;;;;;;23.50;99.90;;;;;;5027455;28;19921;-82
2023/06/22 12:48:42;;;;;;;;;;;23.50;99.90;;;;;;5026927;28;19920;-82
2023/06/22 12:51:09;;;;;;;;;;;23.60;99.90;;;;;;5026564;28;20359;-82
2023/06/22 12:53:34;;;;;;;;;;;23.60;99.90;;;;;;5028329;28;19924;-82
2023/06/22 12:56:00;;;;;;;;;;;23.50;99.60;;;;;;5019922;28;19909;-82
2023/06/22 12:58:25;;;;;;;;;;;23.30;99.90;;;;;;5028583;28;19909;-82
2023/06/22 13:00:51;;;;;;;;;;;23.50;99.90;;;;;;5027236;28;19967;-82
2023/06/22 13:03:16;;;;;;;;;;;23.30;99.90;;;;;;5028605;28;19913;-82
2023/06/22 13:05:42;;;;;;;;;;;23.40;99.90;;;;;;5028112;28;20426;-82
2023/06/22 13:08:08;;;;;;;;;;;23.50;99.90;;;;;;5011075;28;19915;-82
2023/06/22 13:10:33;;;;;;;;;;;23.50;99.50;;;;;;5022459;28;19913;-83
2023/06/22 13:13:00;;;;;;;;;;;24.10;98.80;;;;;;5015509;28;19935;-82
2023/06/22 13:15:27;;;;;;;;;;;24.20;98.20;;;;;;5025097;28;20621;-83
2023/06/22 13:17:52;;;;;;;;;;;24.40;96.30;;;;;;5024763;28;19916;-83
2023/06/22 13:20:18;;;;;;;;;;;24.50;96.80;;;;;;5018186;28;20327;-83
2023/06/22 13:22:44;;;;;;;;;;;24.70;96.40;;;;;;5006314;28;20394;-83
2023/06/22 13:25:11;;;;;;;;;;;24.40;94.90;;;;;;5015855;28;19909;-82
2023/06/22 13:27:38;;;;;;;;;;;24.40;95.90;;;;;;5010778;28;20378;-83
2023/06/22 13:30:04;;;;;;;;;;;24.30;95.80;;;;;;5021731;28;20296;-83
2023/06/22 13:32:29;;;;;;;;;;;24.30;95.00;;;;;;5020975;28;19912;-83
2023/06/22 13:34:55;;;;;;;;;;;23.90;93.10;;;;;;5021799;28;19925;-82
2023/06/22 13:37:20;;;;;;;;;;;24.20;96.10;;;;;;5007279;28;20376;-82
2023/06/22 13:39:46;;;;;;;;;;;24.50;94.30;;;;;;5024834;28;19909;-83
2023/06/22 13:42:12;;;;;;;;;;;24.00;94.90;;;;;;5023927;28;19909;-82
2023/06/22 13:44:37;;;;;;;;;;;24.10;95.90;;;;;;5012701;28;19920;-82
2023/06/22 13:47:04;;;;;;;;;;;23.90;96.10;;;;;;5018276;28;19947;-82
2023/06/22 13:49:30;;;;;;;;;;;23.90;96.40;;;;;;5024699;28;19928;-82
2023/06/22 13:51:55;;;;;;;;;;;23.80;96.80;;;;;;5024667;28;19963;-82
2023/06/22 13:54:21;;;;;;;;;;;24.00;97.40;;;;;;5024398;28;19955;-83
2023/06/22 13:56:47;;;;;;;;;;;24.20;96.70;;;;;;5018738;28;20598;-83
2023/06/22 13:59:12;;;;;;;;;;;24.30;96.90;;;;;;5024147;28;19913;-83
2023/06/22 14:01:39;;;;;;;;;;;23.80;97.10;;;;;;5024495;28;20431;-82
2023/06/22 14:04:05;;;;;;;;;;;22.20;98.60;;;;;;5023117;28;19909;-83
2023/06/22 14:06:31;;;;;;;;;;;21.50;99.90;;;;;;5024073;28;19909;-82
2023/06/22 14:08:56;;;;;;;;;;;20.80;99.90;;;;;;5024274;28;19909;-82
2023/06/22 14:11:22;;;;;;;;;;;19.80;99.90;;;;;;5024406;28;19960;-83